Time;durP1;ratioP1;P1;durP2;ratioP2;P2;SDS_P1;SDS_P2;PMS_P1;PMS_P2;Temp;Humidity;BMP_temperature;BMP_pressure;BME280_temperature;BME280_humidity;BME280_pressure;Samples;Min_cycle;Max_cycle;Signal;HPM_P1;HPM_P2
2023/02/05 00:00:39;;;;;;;3.77;2.00;;;0.70;99.90;;;;;;5127873;27;20288;-71
2023/02/05 00:03:07;;;;;;;2.87;1.70;;;0.60;99.90;;;;;;5128433;27;20291;-71
2023/02/05 00:05:34;;;;;;;3.30;2.00;;;0.70;99.90;;;;;;5127637;27;20316;-71
2023/02/05 00:08:01;;;;;;;3.47;2.10;;;0.70;99.90;;;;;;5128542;27;20284;-71
2023/02/05 00:10:28;;;;;;;2.10;1.93;;;0.70;99.90;;;;;;5139415;27;20205;-71
2023/02/05 00:12:55;;;;;;;2.37;2.00;;;0.70;99.90;;;;;;5149715;27;20196;-71
2023/02/05 00:15:22;;;;;;;3.30;2.13;;;0.60;99.90;;;;;;5149612;27;20221;-71
2023/02/05 00:17:49;;;;;;;2.90;1.93;;;0.60;99.90;;;;;;5135731;27;20236;-71
2023/02/05 00:20:17;;;;;;;2.17;2.00;;;0.60;99.90;;;;;;5128507;27;20734;-70
2023/02/05 00:22:44;;;;;;;1.80;1.70;;;0.50;99.90;;;;;;5127158;27;20322;-70
2023/02/05 00:25:11;;;;;;;2.00;1.90;;;0.40;99.90;;;;;;5128381;27;20222;-70
2023/02/05 00:27:38;;;;;;;2.10;2.00;;;0.30;99.90;;;;;;5128457;27;20210;-70
2023/02/05 00:30:06;;;;;;;3.20;1.77;;;0.30;99.90;;;;;;5126762;28;20789;-70
2023/02/05 00:32:33;;;;;;;1.87;1.73;;;0.30;99.90;;;;;;5107652;28;20297;-70
2023/02/05 00:35:00;;;;;;;2.47;1.80;;;0.30;99.90;;;;;;5108128;28;20206;-70
2023/02/05 00:37:28;;;;;;;2.83;1.87;;;0.40;99.90;;;;;;5108115;28;20301;-70
2023/02/05 00:39:55;;;;;;;2.30;2.10;;;0.40;99.90;;;;;;5107676;28;20234;-70
2023/02/05 00:42:22;;;;;;;2.10;1.80;;;0.40;99.90;;;;;;5120262;27;20397;-70
2023/02/05 00:44:49;;;;;;;2.07;1.97;;;0.40;99.90;;;;;;5128209;28;20707;-70
2023/02/05 00:47:15;;;;;;;1.70;1.60;;;0.40;99.90;;;;;;5128299;28;20637;-70
2023/02/05 00:49:42;;;;;;;3.07;2.00;;;0.40;99.90;;;;;;5119559;28;20359;-71
2023/02/05 00:52:09;;;;;;;2.30;1.80;;;0.30;99.90;;;;;;5108264;28;20206;-71
2023/02/05 00:54:37;;;;;;;2.33;1.93;;;0.30;99.90;;;;;;5109276;28;20238;-71
2023/02/05 00:57:04;;;;;;;2.23;2.03;;;0.40;99.90;;;;;;5108082;28;20300;-70
2023/02/05 00:59:31;;;;;;;2.87;2.10;;;0.40;99.90;;;;;;5107580;28;20262;-71
2023/02/05 01:01:58;;;;;;;2.30;2.10;;;0.40;99.90;;;;;;5107902;28;20285;-71
2023/02/05 01:07:24;;;;;;;2.43;2.10;;;0.40;99.90;;;;;;5111747;27;20570;-71
2023/02/05 01:09:53;;;;;;;2.73;2.23;;;0.40;99.90;;;;;;5130216;27;20238;-70
2023/02/05 01:12:20;;;;;;;2.13;2.00;;;0.30;99.90;;;;;;5149004;27;20624;-70
2023/02/05 01:14:46;;;;;;;3.47;2.10;;;0.30;99.90;;;;;;5148982;27;20211;-70
2023/02/05 01:17:13;;;;;;;2.50;1.90;;;0.20;99.90;;;;;;5140316;27;20239;-70
2023/02/05 01:19:40;;;;;;;2.40;2.20;;;0.20;99.90;;;;;;5107417;28;20686;-71
2023/02/05 01:22:08;;;;;;;3.13;1.90;;;0.20;99.90;;;;;;5107651;28;20556;-71
2023/02/05 01:24:35;;;;;;;2.23;2.13;;;0.20;99.90;;;;;;5107568;28;20300;-71
2023/02/05 01:27:03;;;;;;;3.13;2.27;;;0.10;99.90;;;;;;5107702;28;20294;-71
2023/02/05 01:29:30;;;;;;;2.53;2.23;;;0.10;99.90;;;;;;5107248;28;20277;-71
2023/02/05 01:31:57;;;;;;;1.90;1.80;;;0.20;99.90;;;;;;5107337;28;20770;-70
2023/02/05 01:34:24;;;;;;;1.70;1.60;;;0.20;99.90;;;;;;5109881;28;20771;-70
2023/02/05 01:36:51;;;;;;;3.13;2.20;;;0.00;99.90;;;;;;5110811;28;20774;-70
2023/02/05 01:39:17;;;;;;;2.00;1.80;;;-0.10;99.90;;;;;;5127039;27;20689;-72
2023/02/05 01:41:45;;;;;;;1.80;1.70;;;-0.20;99.90;;;;;;5143888;27;20755;-72
2023/02/05 01:44:17;;;;;;;2.70;2.23;;;-0.20;99.90;;;;;;5131805;27;20227;-70
2023/02/05 01:46:45;;;;;;;1.70;1.60;;;-0.30;99.90;;;;;;5116001;27;20244;-70
2023/02/05 01:49:17;;;;;;;2.50;2.30;;;-0.30;99.90;;;;;;5127762;27;20288;-70
2023/02/05 01:51:46;;;;;;;2.07;1.97;;;-0.30;99.90;;;;;;5118969;27;20226;-70
2023/02/05 01:54:15;;;;;;;2.07;1.97;;;-0.30;99.90;;;;;;5121573;27;20221;-70
2023/02/05 01:56:45;;;;;;;2.30;1.77;;;-0.30;99.90;;;;;;5131287;27;20754;-70
2023/02/05 01:59:17;;;;;;;1.90;1.80;;;-0.30;99.90;;;;;;5131202;27;20319;-70
2023/02/05 02:01:44;;;;;;;3.73;1.97;;;-0.30;99.90;;;;;;5130989;27;20292;-70
2023/02/05 02:04:13;;;;;;;2.03;1.90;;;-0.30;99.90;;;;;;5130950;27;20652;-70
2023/02/05 02:06:40;;;;;;;2.23;1.90;;;-0.30;99.90;;;;;;5130972;27;20244;-70
2023/02/05 02:09:08;;;;;;;2.63;1.50;;;-0.30;99.90;;;;;;5131161;27;20240;-70
2023/02/05 02:11:38;;;;;;;2.53;1.80;;;-0.30;99.90;;;;;;5150913;27;20249;-70
2023/02/05 02:14:08;;;;;;;2.07;1.97;;;-0.30;99.90;;;;;;5151509;27;20304;-70
2023/02/05 02:16:38;;;;;;;1.90;1.80;;;-0.30;99.90;;;;;;5122878;27;20270;-69
2023/02/05 02:19:10;;;;;;;3.73;2.23;;;-0.30;99.90;;;;;;5142246;27;20193;-70
2023/02/05 02:21:57;;;;;;;2.03;1.80;;;-0.30;99.90;;;;;;5130797;27;20190;-70
2023/02/05 02:25:04;;;;;;;2.00;1.80;;;-0.40;99.90;;;;;;5130953;27;20221;-70
2023/02/05 02:27:48;;;;;;;1.93;1.83;;;-0.40;99.90;;;;;;5130314;27;20204;-70
2023/02/05 02:30:21;;;;;;;1.87;1.77;;;-0.40;99.90;;;;;;5127276;27;20717;-70
2023/02/05 02:32:57;;;;;;;1.80;1.70;;;-0.40;99.90;;;;;;5110395;28;20494;-70
2023/02/05 02:35:32;;;;;;;2.10;2.00;;;-0.50;99.90;;;;;;5124964;27;20197;-71
2023/02/05 02:38:06;;;;;;;3.63;2.30;;;-0.40;99.90;;;;;;5130582;27;20228;-71
2023/02/05 02:40:41;;;;;;;2.30;2.10;;;-0.40;99.90;;;;;;5132410;27;20735;-70
2023/02/05 02:43:15;;;;;;;3.57;1.90;;;-0.30;99.90;;;;;;5117748;27;20560;-70
2023/02/05 02:45:48;;;;;;;2.13;1.93;;;-0.30;99.90;;;;;;5109112;28;20237;-70
2023/02/05 02:48:18;;;;;;;2.20;2.00;;;-0.30;99.90;;;;;;5109978;28;20293;-70
2023/02/05 02:50:49;;;;;;;3.07;2.23;;;-0.40;99.90;;;;;;5112807;27;20557;-70
2023/02/05 02:53:20;;;;;;;2.70;2.10;;;-0.30;99.90;;;;;;5130495;27;20653;-70
2023/02/05 02:55:49;;;;;;;1.80;1.70;;;-0.40;99.90;;;;;;5130337;27;20280;-69
2023/02/05 02:58:23;;;;;;;2.20;2.10;;;-0.40;99.90;;;;;;5129792;27;20328;-70
2023/02/05 03:00:51;;;;;;;2.80;2.00;;;-0.30;99.90;;;;;;5112570;27;20284;-69
2023/02/05 03:03:22;;;;;;;2.03;1.87;;;-0.30;99.90;;;;;;5119584;27;20250;-69
2023/02/05 03:05:49;;;;;;;1.90;1.80;;;-0.50;99.90;;;;;;5129911;27;20320;-69
2023/02/05 03:08:23;;;;;;;2.50;2.17;;;-0.60;99.90;;;;;;5129889;27;20300;-69
2023/02/05 03:10:57;;;;;;;2.33;1.77;;;-0.60;99.90;;;;;;5143402;27;20570;-69
2023/02/05 03:13:26;;;;;;;2.00;1.90;;;-0.70;99.90;;;;;;5150610;27;20188;-69
2023/02/05 03:15:53;;;;;;;2.43;1.73;;;-0.60;99.90;;;;;;5120053;27;20240;-69
2023/02/05 03:18:20;;;;;;;2.37;2.17;;;-0.50;99.90;;;;;;5126696;27;20211;-69
2023/02/05 03:20:51;;;;;;;3.60;2.20;;;-0.50;99.90;;;;;;5129567;27;20292;-69
2023/02/05 03:23:19;;;;;;;2.30;2.10;;;-0.50;99.90;;;;;;5129824;27;20276;-69
2023/02/05 03:25:45;;;;;;;2.87;2.57;;;-0.50;99.90;;;;;;5129447;27;20233;-69
2023/02/05 03:28:13;;;;;;;3.20;2.60;;;-0.60;99.90;;;;;;5129581;27;20240;-69
2023/02/05 03:30:53;;;;;;;3.47;3.17;;;-0.70;99.90;;;;;;5129156;27;20739;-70
2023/02/05 03:33:35;;;;;;;4.50;3.13;;;-0.70;99.90;;;;;;5129335;27;20288;-70
2023/02/05 03:36:16;;;;;;;3.33;3.03;;;-0.80;99.90;;;;;;5129490;27;20731;-70
2023/02/05 03:39:10;;;;;;;2.90;2.60;;;-0.80;99.90;;;;;;5123631;27;20293;-70
2023/02/05 03:41:55;;;;;;;2.77;2.57;;;-0.90;99.90;;;;;;5098176;28;20229;-70
2023/02/05 03:44:49;;;;;;;2.53;2.33;;;-0.90;99.90;;;;;;5108507;28;20190;-69
2023/02/05 03:47:26;;;;;;;3.10;2.80;;;-0.80;99.90;;;;;;5108256;28;20325;-69
2023/02/05 03:50:01;;;;;;;2.83;2.63;;;-0.80;99.90;;;;;;5126238;27;20193;-69
2023/02/05 03:52:32;;;;;;;3.43;3.13;;;-0.80;99.90;;;;;;5129137;27;20529;-68
2023/02/05 03:55:07;;;;;;;4.07;3.37;;;-0.70;99.90;;;;;;5125002;27;20213;-69
2023/02/05 03:57:39;;;;;;;4.03;3.37;;;-0.80;99.90;;;;;;5107357;28;20301;-70
2023/02/05 04:00:07;;;;;;;2.70;2.50;;;-0.80;99.90;;;;;;5127868;27;20285;-70
2023/02/05 04:02:36;;;;;;;2.67;2.47;;;-0.80;99.90;;;;;;5128791;27;20324;-71
2023/02/05 04:05:03;;;;;;;2.90;2.57;;;-0.80;99.90;;;;;;5128928;27;20659;-72
2023/02/05 04:07:30;;;;;;;3.37;3.10;;;-0.80;99.90;;;;;;5128794;27;20794;-72
2023/02/05 04:09:57;;;;;;;3.50;3.20;;;-0.80;99.90;;;;;;5134943;27;20239;-69
2023/02/05 04:12:23;;;;;;;5.40;3.90;;;-0.80;99.90;;;;;;5108942;27;20202;-69
2023/02/05 04:14:50;;;;;;;4.20;3.90;;;-0.90;99.90;;;;;;5108421;28;20237;-70
2023/02/05 04:17:17;;;;;;;3.37;3.07;;;-0.80;99.90;;;;;;5107880;28;20788;-70
2023/02/05 04:19:46;;;;;;;3.00;2.80;;;-0.90;99.90;;;;;;5108352;28;20213;-70
2023/02/05 04:22:12;;;;;;;3.77;3.37;;;-0.90;99.90;;;;;;5108333;28;20241;-70
2023/02/05 04:24:39;;;;;;;2.80;2.60;;;-0.90;99.90;;;;;;5127642;27;20288;-70
2023/02/05 04:27:06;;;;;;;3.50;3.20;;;-0.90;99.90;;;;;;5135246;27;20225;-69
2023/02/05 04:29:33;;;;;;;3.07;2.87;;;-0.90;99.90;;;;;;5149227;27;20205;-69
2023/02/05 04:32:00;;;;;;;3.47;2.80;;;-0.90;99.90;;;;;;5149276;27;20205;-69
2023/02/05 04:34:27;;;;;;;2.93;2.70;;;-0.90;99.90;;;;;;5141102;27;20292;-69
2023/02/05 04:36:55;;;;;;;3.90;2.93;;;-0.90;99.90;;;;;;5108129;28;20206;-69
2023/02/05 04:39:22;;;;;;;4.83;3.30;;;-0.90;99.90;;;;;;5107634;28;20206;-69
2023/02/05 04:41:49;;;;;;;4.20;3.47;;;-0.90;99.90;;;;;;5107880;28;20290;-69
2023/02/05 04:44:16;;;;;;;5.23;3.90;;;-0.90;99.90;;;;;;5107738;28;20329;-70
2023/02/05 04:46:43;;;;;;;5.93;4.43;;;-0.90;99.90;;;;;;5107689;28;20230;-69
2023/02/05 04:49:10;;;;;;;4.30;3.27;;;-0.90;99.90;;;;;;5107917;28;20715;-69
2023/02/05 04:51:37;;;;;;;2.87;2.67;;;-0.90;99.90;;;;;;5107576;28;20756;-70
2023/02/05 04:54:05;;;;;;;3.17;2.97;;;-0.90;99.90;;;;;;5107626;28;20208;-69
2023/02/05 04:56:32;;;;;;;2.80;2.60;;;-0.90;99.90;;;;;;5107597;28;20649;-69
2023/02/05 04:58:59;;;;;;;3.60;2.13;;;-0.80;99.90;;;;;;5107708;28;20690;-71
2023/02/05 05:01:26;;;;;;;2.40;2.23;;;-0.80;99.90;;;;;;5107765;28;20816;-71
2023/02/05 05:03:53;;;;;;;3.73;2.83;;;-0.80;99.90;;;;;;5107530;28;20208;-69
2023/02/05 05:06:20;;;;;;;3.00;2.70;;;-0.90;99.90;;;;;;5107446;28;20350;-70
2023/02/05 05:08:47;;;;;;;2.70;2.50;;;-0.90;99.90;;;;;;5109066;28;20297;-71
2023/02/05 05:11:17;;;;;;;2.80;2.50;;;-0.90;99.90;;;;;;5145934;27;20632;-70
2023/02/05 05:13:45;;;;;;;2.73;2.53;;;-0.90;99.90;;;;;;5152697;27;20197;-70
2023/02/05 05:16:12;;;;;;;2.80;2.53;;;-0.90;99.90;;;;;;5152877;27;20235;-70
2023/02/05 05:18:40;;;;;;;2.93;2.53;;;-0.90;99.90;;;;;;5129714;27;20734;-70
2023/02/05 05:21:07;;;;;;;2.70;2.50;;;-0.90;99.90;;;;;;5131833;27;20296;-71
2023/02/05 05:23:35;;;;;;;2.63;2.43;;;-0.90;99.90;;;;;;5122793;27;20206;-70
2023/02/05 05:26:05;;;;;;;3.00;2.70;;;-1.00;99.90;;;;;;5111359;28;20202;-70
2023/02/05 05:28:34;;;;;;;3.20;2.60;;;-1.00;99.90;;;;;;5111303;28;20691;-71
2023/02/05 05:31:06;;;;;;;3.83;2.40;;;-1.00;99.90;;;;;;5120361;27;20665;-70
2023/02/05 05:33:33;;;;;;;2.43;2.23;;;-1.00;99.90;;;;;;5131905;27;20192;-70
2023/02/05 05:36:00;;;;;;;3.37;2.63;;;-1.10;99.90;;;;;;5131630;27;20320;-70
2023/02/05 05:38:27;;;;;;;4.17;2.60;;;-1.10;99.90;;;;;;5131517;27;20201;-71
2023/02/05 05:43:49;;;;;;;3.23;2.90;;;-1.10;99.90;;;;;;5152201;27;20211;-70
2023/02/05 05:46:20;;;;;;;3.83;2.90;;;-1.10;99.90;;;;;;5152523;27;20280;-70
2023/02/05 05:48:49;;;;;;;3.87;3.27;;;-1.10;99.90;;;;;;5138679;27;20182;-70
2023/02/05 05:51:16;;;;;;;3.57;3.27;;;-1.20;99.90;;;;;;5129919;27;20648;-70
2023/02/05 05:53:43;;;;;;;4.03;3.00;;;-1.20;99.90;;;;;;5110855;28;20256;-70
2023/02/05 05:56:10;;;;;;;3.47;2.60;;;-1.20;99.90;;;;;;5125564;27;20233;-71
2023/02/05 05:58:37;;;;;;;2.90;2.40;;;-1.20;99.90;;;;;;5131284;27;20331;-71
2023/02/05 06:01:07;;;;;;;3.00;2.80;;;-1.10;99.90;;;;;;5131500;27;20553;-70
2023/02/05 06:03:35;;;;;;;3.00;2.70;;;-1.20;99.90;;;;;;5128840;27;20197;-70
2023/02/05 06:06:02;;;;;;;2.83;2.63;;;-1.10;99.90;;;;;;5110663;28;20654;-70
2023/02/05 06:08:29;;;;;;;3.20;2.90;;;-1.10;99.90;;;;;;5110319;28;20336;-69
2023/02/05 06:10:56;;;;;;;2.27;2.17;;;-1.10;99.90;;;;;;5134239;27;20512;-69
2023/02/05 06:13:23;;;;;;;2.70;2.50;;;-1.10;99.90;;;;;;5130728;27;20328;-69
2023/02/05 06:15:50;;;;;;;2.87;2.33;;;-1.10;99.90;;;;;;5130237;27;20257;-69
2023/02/05 06:18:19;;;;;;;2.53;2.00;;;-1.10;99.90;;;;;;5130950;27;20209;-69
2023/02/05 06:20:45;;;;;;;3.30;2.20;;;-1.00;99.90;;;;;;5127821;27;20207;-69
2023/02/05 06:23:12;;;;;;;2.50;2.30;;;-1.00;99.90;;;;;;5109892;28;20300;-69
2023/02/05 06:25:39;;;;;;;2.90;2.23;;;-0.90;99.90;;;;;;5110325;28;20296;-69
2023/02/05 06:28:06;;;;;;;2.10;1.90;;;-0.90;99.90;;;;;;5126838;27;20233;-69
2023/02/05 06:30:33;;;;;;;2.43;2.27;;;-0.80;99.90;;;;;;5118209;27;20205;-71
2023/02/05 06:33:00;;;;;;;1.97;1.87;;;-0.70;99.90;;;;;;5110182;28;20233;-71
2023/02/05 06:35:29;;;;;;;1.83;1.73;;;-0.60;99.90;;;;;;5110417;27;20296;-71
2023/02/05 06:37:56;;;;;;;2.40;1.90;;;-0.50;99.90;;;;;;5110032;28;20309;-71
2023/02/05 06:40:24;;;;;;;2.03;1.77;;;-0.50;99.90;;;;;;5129717;27;20296;-71
2023/02/05 06:42:52;;;;;;;2.33;1.60;;;-0.50;99.90;;;;;;5147210;27;20621;-71
2023/02/05 06:45:19;;;;;;;1.50;1.40;;;-0.50;99.90;;;;;;5130373;27;20747;-70
2023/02/05 06:47:46;;;;;;;1.90;1.80;;;-0.50;99.90;;;;;;5130287;27;20312;-70
2023/02/05 06:50:13;;;;;;;1.67;1.57;;;-0.50;99.90;;;;;;5130557;27;20296;-70
2023/02/05 06:52:42;;;;;;;3.20;1.40;;;-0.40;99.90;;;;;;5114477;27;20206;-70
2023/02/05 06:55:09;;;;;;;1.67;1.57;;;-0.50;99.90;;;;;;5109694;28;20195;-70
2023/02/05 06:57:36;;;;;;;2.73;1.50;;;-0.50;99.90;;;;;;5109407;28;20264;-70
2023/02/05 07:00:04;;;;;;;1.60;1.50;;;-0.50;99.90;;;;;;5109585;28;20712;-70
2023/02/05 07:02:31;;;;;;;1.70;1.60;;;-0.50;99.90;;;;;;5109623;28;20316;-70
2023/02/05 07:04:57;;;;;;;1.97;1.80;;;-0.50;99.90;;;;;;5109829;28;20206;-70
2023/02/05 07:07:24;;;;;;;1.53;1.43;;;-0.50;99.90;;;;;;5115480;27;20252;-70
2023/02/05 07:09:52;;;;;;;2.53;1.37;;;-0.50;99.90;;;;;;5135252;27;20304;-70
2023/02/05 07:12:19;;;;;;;1.60;1.40;;;-0.50;99.90;;;;;;5150657;27;20303;-70
2023/02/05 07:14:46;;;;;;;2.10;2.00;;;-0.50;99.90;;;;;;5150795;27;20303;-72
2023/02/05 07:17:13;;;;;;;1.57;1.30;;;-0.50;99.90;;;;;;5112745;27;20222;-72
2023/02/05 07:19:40;;;;;;;1.80;1.70;;;-0.50;99.90;;;;;;5109117;28;20225;-72
2023/02/05 07:22:07;;;;;;;2.20;1.70;;;-0.50;99.90;;;;;;5109958;28;20294;-72
2023/02/05 07:24:34;;;;;;;1.90;1.80;;;-0.50;99.90;;;;;;5108758;27;20217;-72
2023/02/05 07:27:03;;;;;;;1.73;1.63;;;-0.50;99.90;;;;;;5109674;28;20313;-72
2023/02/05 07:29:30;;;;;;;2.10;1.90;;;-0.50;99.90;;;;;;5109171;28;20284;-70
2023/02/05 07:31:56;;;;;;;2.00;1.80;;;-0.50;99.90;;;;;;5122109;27;20599;-70
2023/02/05 07:34:23;;;;;;;1.80;1.50;;;-0.40;99.90;;;;;;5129565;27;20213;-71
2023/02/05 07:36:51;;;;;;;1.70;1.60;;;-0.40;99.90;;;;;;5129182;27;20730;-71
2023/02/05 07:39:17;;;;;;;1.77;1.67;;;-0.40;99.90;;;;;;5130046;27;20296;-71
2023/02/05 07:41:44;;;;;;;2.70;2.30;;;-0.40;99.90;;;;;;5149835;27;20205;-71
2023/02/05 07:44:13;;;;;;;1.90;1.80;;;-0.40;99.90;;;;;;5149796;27;20674;-71
2023/02/05 07:46:40;;;;;;;1.70;1.60;;;-0.40;99.90;;;;;;5149516;27;20295;-72
2023/02/05 07:49:06;;;;;;;3.23;1.83;;;-0.40;99.90;;;;;;5149590;27;20263;-70
2023/02/05 07:51:34;;;;;;;2.07;1.87;;;-0.40;99.90;;;;;;5110133;27;20658;-69
2023/02/05 07:54:00;;;;;;;1.93;1.80;;;-0.40;99.90;;;;;;5108735;28;20198;-69
2023/02/05 07:56:27;;;;;;;1.93;1.83;;;-0.40;99.90;;;;;;5128884;27;20325;-69
2023/02/05 07:58:54;;;;;;;3.30;1.90;;;-0.40;99.90;;;;;;5128037;27;20263;-69
2023/02/05 08:01:23;;;;;;;2.10;1.90;;;-0.40;99.90;;;;;;5129547;27;20209;-69
2023/02/05 08:03:50;;;;;;;3.20;2.10;;;-0.40;99.90;;;;;;5128979;27;20201;-69
2023/02/05 08:06:16;;;;;;;3.80;2.13;;;-0.30;99.90;;;;;;5129156;27;20289;-69
2023/02/05 08:08:44;;;;;;;3.33;1.77;;;-0.30;99.90;;;;;;5119221;27;20707;-69
2023/02/05 08:11:14;;;;;;;1.90;1.70;;;-0.30;99.90;;;;;;5141272;27;20244;-69
2023/02/05 08:13:42;;;;;;;1.90;1.80;;;-0.30;99.90;;;;;;5135466;27;20285;-69
2023/02/05 08:16:10;;;;;;;2.60;1.83;;;-0.30;99.90;;;;;;5108027;28;20232;-70
2023/02/05 08:18:38;;;;;;;1.70;1.60;;;-0.20;99.90;;;;;;5108578;28;20256;-70
2023/02/05 08:21:05;;;;;;;2.10;2.00;;;-0.20;99.90;;;;;;5108027;28;20292;-70
2023/02/05 08:23:32;;;;;;;2.17;2.07;;;-0.20;99.90;;;;;;5108128;28;20297;-69
2023/02/05 08:26:00;;;;;;;2.00;1.90;;;-0.20;99.90;;;;;;5108489;28;20297;-70
2023/02/05 08:28:28;;;;;;;2.27;1.83;;;-0.10;99.90;;;;;;5108372;28;20229;-70
2023/02/05 08:30:56;;;;;;;2.03;1.93;;;-0.20;99.90;;;;;;5107975;28;20285;-69
2023/02/05 08:33:23;;;;;;;2.17;1.80;;;-0.20;99.90;;;;;;5108459;28;20576;-69
2023/02/05 08:35:51;;;;;;;1.73;1.63;;;-0.10;99.90;;;;;;5107891;28;20202;-69
2023/02/05 08:38:18;;;;;;;1.80;1.70;;;-0.10;99.90;;;;;;5108321;28;20720;-70
2023/02/05 08:40:45;;;;;;;2.10;2.00;;;-0.20;99.90;;;;;;5134214;27;20608;-70
2023/02/05 08:43:12;;;;;;;2.03;1.93;;;-0.10;99.90;;;;;;5111501;27;20232;-70
2023/02/05 08:45:39;;;;;;;1.97;1.77;;;-0.10;99.90;;;;;;5112030;28;20209;-68
2023/02/05 08:48:06;;;;;;;1.87;1.77;;;-0.10;99.90;;;;;;5112387;28;20257;-69
2023/02/05 08:50:33;;;;;;;4.80;1.90;;;-0.10;99.90;;;;;;5111874;28;20206;-70
2023/02/05 08:53:01;;;;;;;3.87;2.03;;;-0.10;99.90;;;;;;5112255;28;20469;-68
2023/02/05 08:55:28;;;;;;;3.10;2.00;;;-0.10;99.90;;;;;;5110753;28;20369;-69
2023/02/05 08:57:55;;;;;;;2.07;1.70;;;0.00;99.90;;;;;;5111203;28;20321;-70
2023/02/05 09:00:22;;;;;;;2.33;1.97;;;-0.10;99.90;;;;;;5112291;28;20190;-70
2023/02/05 09:02:49;;;;;;;2.20;2.00;;;0.00;99.90;;;;;;5111834;28;20241;-69
2023/02/05 09:05:16;;;;;;;2.10;1.90;;;0.00;99.90;;;;;;5113176;27;20205;-70
2023/02/05 09:07:43;;;;;;;1.80;1.70;;;0.00;99.90;;;;;;5118794;27;20364;-69
2023/02/05 09:10:13;;;;;;;2.30;2.10;;;0.00;99.90;;;;;;5140049;27;20758;-69
2023/02/05 09:12:40;;;;;;;2.67;1.93;;;0.00;99.90;;;;;;5152229;27;20209;-69
2023/02/05 09:15:08;;;;;;;3.10;2.10;;;0.10;99.90;;;;;;5149491;27;20212;-70
2023/02/05 09:17:35;;;;;;;2.10;1.90;;;0.10;99.90;;;;;;5119855;27;20288;-69
2023/02/05 09:20:03;;;;;;;2.13;1.93;;;0.10;99.90;;;;;;5132041;27;20212;-69
2023/02/05 09:22:30;;;;;;;2.33;2.13;;;0.10;99.90;;;;;;5131576;27;20777;-69
2023/02/05 09:24:56;;;;;;;1.77;1.67;;;0.10;99.90;;;;;;5131984;27;20292;-70
2023/02/05 09:27:25;;;;;;;2.27;1.73;;;0.20;99.90;;;;;;5125506;27;20225;-70
2023/02/05 09:29:52;;;;;;;3.20;1.60;;;0.20;99.90;;;;;;5111405;28;20316;-70
2023/02/05 09:32:18;;;;;;;2.20;1.60;;;0.20;99.90;;;;;;5110954;28;20312;-70
2023/02/05 09:34:45;;;;;;;1.60;1.50;;;0.30;99.90;;;;;;5110841;28;20244;-70
2023/02/05 09:37:12;;;;;;;1.73;1.63;;;0.30;99.90;;;;;;5110869;28;20296;-69
2023/02/05 09:39:39;;;;;;;1.57;1.37;;;0.40;99.90;;;;;;5118877;27;20205;-68
2023/02/05 09:42:15;;;;;;;2.03;1.70;;;0.40;99.90;;;;;;5128386;27;20339;-69
2023/02/05 09:44:57;;;;;;;1.93;1.70;;;0.40;99.90;;;;;;5129648;27;20189;-70
2023/02/05 09:47:33;;;;;;;1.60;1.50;;;0.40;99.90;;;;;;5129455;27;20217;-71
2023/02/05 09:50:05;;;;;;;2.73;1.53;;;0.40;99.90;;;;;;5129984;27;20212;-71
2023/02/05 09:52:38;;;;;;;1.87;1.70;;;0.50;99.90;;;;;;5125915;27;20356;-71
2023/02/05 09:55:17;;;;;;;1.70;1.60;;;0.50;99.90;;;;;;5108925;28;20252;-70
2023/02/05 09:57:45;;;;;;;1.87;1.67;;;0.50;99.90;;;;;;5107864;28;20251;-71
2023/02/05 10:00:21;;;;;;;1.87;1.50;;;0.60;99.90;;;;;;5108735;27;20310;-71
2023/02/05 10:02:53;;;;;;;2.37;1.50;;;0.60;99.90;;;;;;5128560;27;20704;-69
2023/02/05 10:05:23;;;;;;;1.80;1.70;;;0.70;99.90;;;;;;5116888;27;20286;-69
2023/02/05 10:07:58;;;;;;;1.77;1.67;;;0.70;99.90;;;;;;5108385;28;20226;-69
2023/02/05 10:10:27;;;;;;;2.20;2.00;;;0.70;99.90;;;;;;5128503;27;20228;-70
2023/02/05 10:13:27;;;;;;;4.07;1.53;;;0.80;99.90;;;;;;5120306;27;20202;-70
2023/02/05 10:16:10;;;;;;;2.10;1.40;;;0.80;99.90;;;;;;5128003;27;20235;-71
2023/02/05 10:18:47;;;;;;;2.27;1.30;;;0.90;99.90;;;;;;5128463;27;20198;-70
2023/02/05 10:21:25;;;;;;;1.43;1.30;;;0.90;99.90;;;;;;5128966;27;20283;-70
2023/02/05 10:24:21;;;;;;;2.00;1.20;;;0.90;99.90;;;;;;5128301;27;20200;-70
2023/02/05 10:26:51;;;;;;;1.37;1.37;;;0.90;99.90;;;;;;5128401;27;20284;-70
2023/02/05 10:29:37;;;;;;;1.70;1.13;;;1.00;99.90;;;;;;5128168;27;20351;-70
2023/02/05 10:32:17;;;;;;;1.50;1.40;;;1.00;99.90;;;;;;5109901;27;20290;-70
2023/02/05 10:34:55;;;;;;;1.50;1.30;;;1.00;99.90;;;;;;5117918;27;20292;-70
2023/02/05 10:37:35;;;;;;;2.57;1.13;;;1.10;99.90;;;;;;5125392;27;20747;-70
2023/02/05 10:40:10;;;;;;;1.10;1.10;;;1.10;99.90;;;;;;5121159;27;20649;-68
2023/02/05 10:42:41;;;;;;;1.87;1.17;;;1.10;99.90;;;;;;5126018;27;20289;-69
2023/02/05 10:45:16;;;;;;;1.00;1.00;;;1.20;99.90;;;;;;5129698;27;20305;-70
2023/02/05 10:48:12;;;;;;;1.53;1.30;;;1.20;99.90;;;;;;5129488;27;20276;-70
2023/02/05 10:50:51;;;;;;;1.43;0.80;;;1.30;99.90;;;;;;5129291;27;20276;-70
2023/02/05 10:53:21;;;;;;;1.00;1.00;;;1.30;99.90;;;;;;5129832;27;20627;-70
2023/02/05 10:55:48;;;;;;;1.97;1.30;;;1.40;99.90;;;;;;5120000;27;20200;-70
2023/02/05 10:58:35;;;;;;;1.20;0.97;;;1.50;99.90;;;;;;5109048;28;20321;-70
2023/02/05 11:01:03;;;;;;;1.60;1.10;;;1.50;99.90;;;;;;5124859;27;20244;-70
2023/02/05 11:03:32;;;;;;;1.00;1.00;;;1.60;99.90;;;;;;5129746;27;20205;-70
2023/02/05 11:05:59;;;;;;;1.07;1.07;;;1.60;99.90;;;;;;5129176;27;20292;-70
2023/02/05 11:08:34;;;;;;;1.00;1.00;;;1.60;99.90;;;;;;5129918;27;20317;-71
2023/02/05 11:11:02;;;;;;;1.10;1.00;;;1.70;99.90;;;;;;5135294;27;20223;-70
2023/02/05 11:13:29;;;;;;;0.90;0.77;;;1.80;99.90;;;;;;5108736;28;20308;-71
2023/02/05 11:15:58;;;;;;;0.80;0.80;;;1.80;99.90;;;;;;5114031;27;20217;-71
2023/02/05 11:18:29;;;;;;;1.00;0.90;;;1.80;99.90;;;;;;5129334;27;20292;-71
2023/02/05 11:21:00;;;;;;;0.70;0.70;;;1.90;99.90;;;;;;5129517;27;20201;-71
2023/02/05 11:23:30;;;;;;;1.00;1.00;;;1.90;99.90;;;;;;5128722;27;20609;-70
2023/02/05 11:25:58;;;;;;;2.50;0.90;;;1.90;99.90;;;;;;5124370;27;20197;-70
2023/02/05 11:28:28;;;;;;;2.10;1.00;;;1.90;99.90;;;;;;5129373;27;20325;-70
2023/02/05 11:30:56;;;;;;;1.20;1.10;;;1.90;99.90;;;;;;5120202;27;20229;-71
2023/02/05 11:33:30;;;;;;;2.53;1.37;;;2.00;99.90;;;;;;5116078;27;20315;-72
2023/02/05 11:36:01;;;;;;;2.20;1.63;;;1.90;99.90;;;;;;5120840;27;20208;-73
2023/02/05 11:38:43;;;;;;;5.90;4.20;;;2.00;99.90;;;;;;5132853;27;20202;-72
2023/02/05 11:41:12;;;;;;;2.23;2.03;;;2.00;99.90;;;;;;5125833;27;20623;-72
2023/02/05 11:43:45;;;;;;;2.43;1.30;;;2.00;99.90;;;;;;5129033;27;20296;-73
2023/02/05 11:46:17;;;;;;;1.37;1.27;;;2.00;99.90;;;;;;5113051;27;20902;-73
2023/02/05 11:48:49;;;;;;;1.53;1.40;;;2.00;99.90;;;;;;5116773;27;20381;-73
2023/02/05 11:51:37;;;;;;;2.53;1.60;;;2.00;99.90;;;;;;5108522;28;20222;-73
2023/02/05 11:54:11;;;;;;;3.67;1.47;;;2.10;99.90;;;;;;5113435;27;20186;-73
2023/02/05 11:56:38;;;;;;;1.47;1.37;;;2.10;99.90;;;;;;5128142;27;20240;-73
2023/02/05 11:59:06;;;;;;;1.67;1.57;;;2.10;99.90;;;;;;5115459;27;20230;-72
2023/02/05 12:01:35;;;;;;;1.73;1.63;;;2.10;99.90;;;;;;5107906;28;20759;-72
2023/02/05 12:04:14;;;;;;;3.10;1.67;;;2.10;99.90;;;;;;5108005;27;20285;-71
2023/02/05 12:06:46;;;;;;;1.43;1.30;;;2.20;99.90;;;;;;5117925;27;20186;-72
2023/02/05 12:09:19;;;;;;;2.67;1.77;;;2.20;99.90;;;;;;5121738;27;21162;-73
2023/02/05 12:12:02;;;;;;;1.90;1.40;;;2.20;99.90;;;;;;5133056;27;20196;-73
2023/02/05 12:14:37;;;;;;;1.90;1.50;;;2.20;99.90;;;;;;5136652;27;20193;-73
2023/02/05 12:17:22;;;;;;;1.70;1.57;;;2.20;99.90;;;;;;5136103;27;20197;-73
2023/02/05 12:19:56;;;;;;;1.60;1.40;;;2.30;99.90;;;;;;5131871;27;20221;-73
2023/02/05 12:22:40;;;;;;;2.37;1.37;;;2.30;99.90;;;;;;5116133;27;20201;-72
2023/02/05 12:25:17;;;;;;;1.80;1.37;;;2.20;99.90;;;;;;5117872;27;20636;-72
2023/02/05 12:27:57;;;;;;;1.30;1.20;;;2.20;99.90;;;;;;5121598;27;20414;-72
2023/02/05 12:30:39;;;;;;;1.57;1.20;;;2.30;99.90;;;;;;5114751;27;20218;-71
2023/02/05 12:33:34;;;;;;;1.20;1.10;;;2.30;99.90;;;;;;5107390;28;20286;-72
2023/02/05 12:36:16;;;;;;;1.77;1.17;;;2.40;99.90;;;;;;5108156;28;20274;-72
2023/02/05 12:38:55;;;;;;;2.63;1.33;;;2.40;99.90;;;;;;5116491;28;20726;-72
2023/02/05 12:41:30;;;;;;;1.43;1.33;;;2.40;99.90;;;;;;5121485;27;20201;-72
2023/02/05 12:44:07;;;;;;;1.70;1.60;;;2.50;99.90;;;;;;5129444;27;20197;-72
2023/02/05 12:46:44;;;;;;;1.20;1.20;;;2.70;99.90;;;;;;5123786;27;20555;-72
2023/02/05 12:49:27;;;;;;;1.23;1.10;;;2.80;99.90;;;;;;5124112;27;20312;-72
2023/02/05 12:52:14;;;;;;;1.37;1.17;;;2.90;99.90;;;;;;5126145;27;20243;-72
2023/02/05 12:54:53;;;;;;;2.40;1.20;;;3.00;99.90;;;;;;5135719;27;20262;-73
2023/02/05 12:57:26;;;;;;;1.13;1.10;;;3.00;99.90;;;;;;5114218;27;20230;-72
2023/02/05 12:59:55;;;;;;;1.40;1.20;;;3.10;99.90;;;;;;5124438;28;20337;-72
2023/02/05 13:02:34;;;;;;;2.30;1.57;;;3.10;99.90;;;;;;5112981;27;20259;-72
2023/02/05 13:05:12;;;;;;;3.07;1.30;;;3.10;99.90;;;;;;5127696;27;20284;-72
2023/02/05 13:07:44;;;;;;;1.17;1.07;;;3.10;99.90;;;;;;5127319;27;20682;-72
2023/02/05 13:10:20;;;;;;;1.63;1.27;;;3.10;99.90;;;;;;5111948;27;20791;-72
2023/02/05 13:12:52;;;;;;;1.40;1.30;;;3.10;99.90;;;;;;5107382;27;20743;-72